メインページ
METAR-TAF:

METAR-TAF

空港 :

ラスベガス, ネバダ州, アメリカ合衆国

マッカラン国際空港

緯度: 36-04-44N, 経度: 115-09-19W, 海抜: 663m

現時点の気象観測

当レポートは1時間11分前の10:56(UTC)に作成
南/南西の風 3kt
気温 12°C
湿度 44%
気圧 1021 hPa
視程: 16.1km
晴天

METAR: KLAS 241056Z 20003KT 10SM CLR 12/00 A3014 RMK AO2 SLP194 T01170000

時間: 05:07 (12:07 UTC)

予報

当レポートは34分前の11:33(UTC)に作成
予報は24日の 12時(UTC)から 25日の 12時(UTC)まで有効
変向風 4kt
視程: 10km
高度25000ftの雲は散在している
24日の 1900時(UTC)から
の風 7kt
視程: 10km
高度25000ftの千切れ雲あり
24日の 2100時(UTC)から
南/南東の風 11kt
視程: 10km
高度25000ftの千切れ雲あり
25日の 0100時(UTC)から
の風 12kt、最大20ktの突風を伴う
視程: 10km
高度25000ftの曇り
25日の 0600時(UTC)から
南/南西の風 15kt、最大23ktの突風を伴う
視程: 10km
高度12000ftの雲はほとんどない
高度25000ftの曇り

TAF: KLAS 241133Z 2412/2512 VRB04KT P6SM SCT250 FM241900 08007KT P6SM BKN250 FM242100 15011KT P6SM BKN250 FM250100 18012G20KT P6SM OVC250 FM250600 20015G23KT P6SM FEW120 OVC250

4,000以上の空港の気象観測と天気予報(METAR報とTAF報)

利用可能な観測所は地図上に黄色い丸と赤い丸で示す。

丸の上にカーソルを重ねると観測所名を参照できる。

次にクリックすると気象観測と天気予報を参照できる。

マップの切り替え:黒色「×」印の緑ボタンをクリックして拡大、「-」印の緑ボタンをクリックして縮小、緑色の三角印をクリックして隣りの地図に切り替え


METAR-TAF: